Ronnie Rogers — WDD2270 — position and weather

sailwx.info

Track history (hours):
 
Tides and Currents Weather Stations Pressure Air Temp Water Temp Dewpoint Dewpoint Depression Visibility Wind Speed Wind Dir Waves Ship Positions

Ronnie Rogers

Owner: Florida Marine Transporters, Inc., Mandeville, LA. More information available from US FCC via Universal Licensing System and Coast Guard Vessel Documentation Center.

Last reported at 2015-Dec-09 07:31 UTC. Time now 2016-Feb-11 00:26 UTC.
Position N 29°56' W 090°00'.
Warning: this ship's position is months out of date.

Length 29 m; draft 3 m.

Type: Towing. MMSI: 367113160.

Date/timePositionNaut miles runAvg speedWind from/ knotsBaromVisibWave heightAir tempDewpointWater temp
2015-Dec-09 07:31N 29°56' W 090°00'54 1.4
2015-Dec-07 16:33N 29°36' W 090°58'3 3.0
2015-Dec-07 15:33N 29°34' W 090°56'49 4.7
2015-Dec-07 05:08N 29°49' W 091°49'58 6.0
2015-Dec-06 19:33N 29°56' W 092°55'6 6.5
2015-Dec-06 18:34N 29°56' W 093°03'6 5.6
2015-Dec-06 17:27N 29°56' W 093°10'5 5.9
2015-Dec-06 16:32N 30°01' W 093°14'6 5.7
2015-Dec-06 15:34N 30°05' W 093°17'1 1.2
2015-Dec-06 14:34N 30°06' W 093°18'2 2.5
2015-Dec-06 13:34N 30°04' W 093°20'6 6.1
2015-Dec-06 12:34N 30°04' W 093°27'7 6.6
2015-Dec-06 11:32N 30°04' W 093°35'7 6.8
2015-Dec-06 10:33N 30°03' W 093°43'7 6.3
2015-Dec-06 09:29N 29°59' W 093°49'6 6.5
2015-Dec-06 08:29N 29°54' W 093°54'7 6.0
2015-Dec-06 07:19N 29°49' W 093°59'6 6.1
2015-Dec-06 06:23N 29°45' W 094°04'5 6.4
2015-Dec-06 05:33N 29°42' W 094°09'14 6.5
2015-Dec-06 03:26N 29°36' W 094°23'5 4.9
2015-Dec-06 02:29N 29°33' W 094°28'18 6.1
2015-Dec-05 23:31N 29°24' W 094°45'4 4.1
2015-Dec-05 22:30N 29°25' W 094°50'7 7.8
2015-Dec-05 21:34N 29°32' W 094°54'8 7.5
2015-Dec-05 20:34N 29°38' W 094°58'6 6.3
2015-Dec-05 19:34N 29°44' W 095°02'4 3.5
2015-Dec-05 18:28N 29°47' W 095°05'1 0.1
2015-Dec-05 06:34N 29°46' W 095°05'2 1.6
2015-Dec-05 05:33N 29°47' W 095°04'0 0.0
2015-Dec-05 04:34N 29°47' W 095°04'0 0.0
2015-Dec-05 03:25N 29°47' W 095°04'0 0.0
2015-Dec-05 02:33N 29°47' W 095°04'2 0.1
2015-Dec-04 11:04N 29°46' W 095°06'0 0.0
2015-Dec-04 10:25N 29°46' W 095°06'0 0.0
2015-Dec-04 09:33N 29°46' W 095°06'0 0.0
2015-Dec-04 08:33N 29°46' W 095°06'0 0.0
2015-Dec-04 07:34N 29°46' W 095°06'2 1.9
2015-Dec-04 06:33N 29°47' W 095°04'0 0.3
2015-Dec-04 05:34N 29°47' W 095°04'0 0.0
2015-Dec-04 04:33N 29°47' W 095°04'2 2.1
2015-Dec-04 03:34N 29°46' W 095°05'1 0.1
2015-Dec-03 17:24N 29°45' W 095°06'3 1.4
2015-Dec-03 15:32N 29°47' W 095°04'2 0.4
2015-Dec-03 10:31N 29°45' W 095°06'3 2.9
2015-Dec-03 09:33N 29°44' W 095°03'1 1.3
2015-Dec-03 08:33N 29°44' W 095°01'2 2.1
2015-Dec-03 07:33N 29°45' W 095°04'3 0.2
2015-Dec-02 15:33N 29°46' W 095°06'0 0.0
2015-Dec-02 14:33N 29°46' W 095°06'0 0.0
2015-Dec-02 11:13N 29°46' W 095°06'0 0.0
2015-Dec-02 10:23N 29°46' W 095°06'0 0.0
2015-Dec-02 07:11N 29°46' W 095°06'0 0.0
2015-Dec-02 06:25N 29°46' W 095°06'0 0.0
2015-Dec-02 05:22N 29°46' W 095°06'0 0.0
2015-Dec-02 03:31N 29°46' W 095°06'0 0.0
2015-Dec-02 01:29N 29°46' W 095°06'2 1.7
2015-Dec-02 00:33N 29°45' W 095°06'0 0.0
2015-Dec-01 23:33N 29°45' W 095°06'0 0.0
2015-Dec-01 22:32N 29°45' W 095°06'0 0.0
2015-Dec-01 21:32N 29°45' W 095°06'0 0.0
2015-Dec-01 20:33N 29°45' W 095°06'0 0.0
2015-Dec-01 19:33N 29°45' W 095°06'0 0.0
2015-Dec-01 18:33N 29°45' W 095°06'0 0.0
2015-Dec-01 17:04N 29°45' W 095°06'0 0.0
2015-Dec-01 16:33N 29°45' W 095°06'0 0.0
2015-Dec-01 15:32N 29°45' W 095°06'0 0.0
2015-Dec-01 14:34N 29°45' W 095°06'0 0.0
2015-Dec-01 13:33N 29°45' W 095°06'0 0.0
2015-Dec-01 12:33N 29°45' W 095°06'0 0.0
2015-Dec-01 11:33N 29°45' W 095°06'0 0.0
2015-Dec-01 10:33N 29°45' W 095°06'0 0.0
2015-Dec-01 09:34N 29°45' W 095°06'0 0.0
2015-Dec-01 08:33N 29°45' W 095°06'0 0.0
2015-Dec-01 07:33N 29°45' W 095°06'0 0.0
2015-Dec-01 06:32N 29°45' W 095°06'0 0.0
2015-Dec-01 05:34N 29°45' W 095°06'1 0.6
2015-Dec-01 03:33N 29°46' W 095°06'1 0.1
2015-Nov-30 23:13N 29°46' W 095°06'2 2.6
2015-Nov-30 22:31N 29°47' W 095°04'1 0.6
2015-Nov-30 21:33N 29°47' W 095°04'2 0.7
2015-Nov-30 18:22N 29°46' W 095°06'0 0.0
2015-Nov-30 17:32N 29°46' W 095°06'0 0.0
2015-Nov-30 16:34N 29°46' W 095°06'0 0.0
2015-Nov-30 15:32N 29°46' W 095°06'0 0.0
2015-Nov-30 14:20N 29°46' W 095°06'0 0.0
2015-Nov-30 13:34N 29°46' W 095°06'0 0.0
2015-Nov-30 12:34N 29°46' W 095°06'0 0.0
2015-Nov-30 11:34N 29°46' W 095°06'0 0.0
2015-Nov-30 10:34N 29°46' W 095°06'0 0.0
2015-Nov-30 09:33N 29°46' W 095°06'2 1.7
2015-Nov-30 08:33N 29°47' W 095°04'0 0.3
2015-Nov-30 07:33N 29°47' W 095°04'0 0.0
2015-Nov-30 06:33N 29°47' W 095°04'0 0.0
2015-Nov-30 05:33N 29°47' W 095°04'0 0.0
2015-Nov-30 04:21N 29°47' W 095°04'3 3.3
2015-Nov-30 03:31N 29°45' W 095°06'7 6.9
2015-Nov-30 02:32N 29°44' W 095°14'0 0.1
2015-Nov-30 01:33N 29°44' W 095°14'0 0.0
2015-Nov-30 00:33N 29°44' W 095°14'0 0.0
2015-Nov-29 23:33N 29°44' W 095°14'0 0.0
2015-Nov-29 22:33N 29°44' W 095°14'0 0.0
2015-Nov-29 21:33N 29°44' W 095°14'0 0.0
2015-Nov-29 20:33N 29°44' W 095°14'0 0.0
2015-Nov-29 19:33N 29°44' W 095°14'0 0.0
2015-Nov-29 18:33N 29°44' W 095°14'0 0.0
2015-Nov-29 17:33N 29°44' W 095°14'0 0.0
2015-Nov-29 16:33N 29°44' W 095°14'0 0.0
2015-Nov-29 15:33N 29°44' W 095°14'0 0.0
2015-Nov-29 14:33N 29°44' W 095°14'0 0.0
2015-Nov-29 13:33N 29°44' W 095°14'0 0.0
2015-Nov-29 12:33N 29°44' W 095°14'0 0.0
2015-Nov-29 11:33N 29°44' W 095°14'0 0.0
2015-Nov-29 10:33N 29°44' W 095°14'0 0.0
2015-Nov-29 09:33N 29°44' W 095°14'0 0.0
2015-Nov-29 08:33N 29°44' W 095°14'0 0.0
2015-Nov-29 07:33N 29°44' W 095°14'  
Track history (hours):
 
Tides and Currents Weather Stations Pressure Air Temp Water Temp Dewpoint Dewpoint Depression Visibility Wind Speed Wind Dir Waves Ship Positions

Ronnie Rogers

Owner: Florida Marine Transporters, Inc., Mandeville, LA. More information available from US FCC via Universal Licensing System and Coast Guard Vessel Documentation Center.

Last reported at 2015-Dec-09 07:31 UTC. Time now 2016-Feb-11 00:26 UTC.
Position N 29°56' W 090°00'.
Warning: this ship's position is months out of date.

Length 29 m; draft 3 m.

Type: Towing. MMSI: 367113160.

Date/timePositionNaut miles runAvg speedWind from/ knotsBaromVisibWave heightAir tempDewpointWater temp
2015-Dec-09 07:31N 29°56' W 090°00'54 1.4
2015-Dec-07 16:33N 29°36' W 090°58'3 3.0
2015-Dec-07 15:33N 29°34' W 090°56'49 4.7
2015-Dec-07 05:08N 29°49' W 091°49'58 6.0
2015-Dec-06 19:33N 29°56' W 092°55'6 6.5
2015-Dec-06 18:34N 29°56' W 093°03'6 5.6
2015-Dec-06 17:27N 29°56' W 093°10'5 5.9
2015-Dec-06 16:32N 30°01' W 093°14'6 5.7
2015-Dec-06 15:34N 30°05' W 093°17'1 1.2
2015-Dec-06 14:34N 30°06' W 093°18'2 2.5
2015-Dec-06 13:34N 30°04' W 093°20'6 6.1
2015-Dec-06 12:34N 30°04' W 093°27'7 6.6
2015-Dec-06 11:32N 30°04' W 093°35'7 6.8
2015-Dec-06 10:33N 30°03' W 093°43'7 6.3
2015-Dec-06 09:29N 29°59' W 093°49'6 6.5
2015-Dec-06 08:29N 29°54' W 093°54'7 6.0
2015-Dec-06 07:19N 29°49' W 093°59'6 6.1
2015-Dec-06 06:23N 29°45' W 094°04'5 6.4
2015-Dec-06 05:33N 29°42' W 094°09'14 6.5
2015-Dec-06 03:26N 29°36' W 094°23'5 4.9
2015-Dec-06 02:29N 29°33' W 094°28'18 6.1
2015-Dec-05 23:31N 29°24' W 094°45'4 4.1
2015-Dec-05 22:30N 29°25' W 094°50'7 7.8
2015-Dec-05 21:34N 29°32' W 094°54'8 7.5
2015-Dec-05 20:34N 29°38' W 094°58'6 6.3
2015-Dec-05 19:34N 29°44' W 095°02'4 3.5
2015-Dec-05 18:28N 29°47' W 095°05'1 0.1
2015-Dec-05 06:34N 29°46' W 095°05'2 1.6
2015-Dec-05 05:33N 29°47' W 095°04'0 0.0
2015-Dec-05 04:34N 29°47' W 095°04'0 0.0
2015-Dec-05 03:25N 29°47' W 095°04'0 0.0
2015-Dec-05 02:33N 29°47' W 095°04'2 0.1
2015-Dec-04 11:04N 29°46' W 095°06'0 0.0
2015-Dec-04 10:25N 29°46' W 095°06'0 0.0
2015-Dec-04 09:33N 29°46' W 095°06'0 0.0
2015-Dec-04 08:33N 29°46' W 095°06'0 0.0
2015-Dec-04 07:34N 29°46' W 095°06'2 1.9
2015-Dec-04 06:33N 29°47' W 095°04'0 0.3
2015-Dec-04 05:34N 29°47' W 095°04'0 0.0
2015-Dec-04 04:33N 29°47' W 095°04'2 2.1
2015-Dec-04 03:34N 29°46' W 095°05'1 0.1
2015-Dec-03 17:24N 29°45' W 095°06'3 1.4
2015-Dec-03 15:32N 29°47' W 095°04'2 0.4
2015-Dec-03 10:31N 29°45' W 095°06'3 2.9
2015-Dec-03 09:33N 29°44' W 095°03'1 1.3
2015-Dec-03 08:33N 29°44' W 095°01'2 2.1
2015-Dec-03 07:33N 29°45' W 095°04'3 0.2
2015-Dec-02 15:33N 29°46' W 095°06'0 0.0
2015-Dec-02 14:33N 29°46' W 095°06'0 0.0
2015-Dec-02 11:13N 29°46' W 095°06'0 0.0
2015-Dec-02 10:23N 29°46' W 095°06'0 0.0
2015-Dec-02 07:11N 29°46' W 095°06'0 0.0
2015-Dec-02 06:25N 29°46' W 095°06'0 0.0
2015-Dec-02 05:22N 29°46' W 095°06'0 0.0
2015-Dec-02 03:31N 29°46' W 095°06'0 0.0
2015-Dec-02 01:29N 29°46' W 095°06'2 1.7
2015-Dec-02 00:33N 29°45' W 095°06'0 0.0
2015-Dec-01 23:33N 29°45' W 095°06'0 0.0
2015-Dec-01 22:32N 29°45' W 095°06'0 0.0
2015-Dec-01 21:32N 29°45' W 095°06'0 0.0
2015-Dec-01 20:33N 29°45' W 095°06'0 0.0
2015-Dec-01 19:33N 29°45' W 095°06'0 0.0
2015-Dec-01 18:33N 29°45' W 095°06'0 0.0
2015-Dec-01 17:04N 29°45' W 095°06'0 0.0
2015-Dec-01 16:33N 29°45' W 095°06'0 0.0
2015-Dec-01 15:32N 29°45' W 095°06'0 0.0
2015-Dec-01 14:34N 29°45' W 095°06'0 0.0
2015-Dec-01 13:33N 29°45' W 095°06'0 0.0
2015-Dec-01 12:33N 29°45' W 095°06'0 0.0
2015-Dec-01 11:33N 29°45' W 095°06'0 0.0
2015-Dec-01 10:33N 29°45' W 095°06'0 0.0
2015-Dec-01 09:34N 29°45' W 095°06'0 0.0
2015-Dec-01 08:33N 29°45' W 095°06'0 0.0
2015-Dec-01 07:33N 29°45' W 095°06'0 0.0
2015-Dec-01 06:32N 29°45' W 095°06'0 0.0
2015-Dec-01 05:34N 29°45' W 095°06'1 0.6
2015-Dec-01 03:33N 29°46' W 095°06'1 0.1
2015-Nov-30 23:13N 29°46' W 095°06'2 2.6
2015-Nov-30 22:31N 29°47' W 095°04'1 0.6
2015-Nov-30 21:33N 29°47' W 095°04'2 0.7
2015-Nov-30 18:22N 29°46' W 095°06'0 0.0
2015-Nov-30 17:32N 29°46' W 095°06'0 0.0
2015-Nov-30 16:34N 29°46' W 095°06'0 0.0
2015-Nov-30 15:32N 29°46' W 095°06'0 0.0
2015-Nov-30 14:20N 29°46' W 095°06'0 0.0
2015-Nov-30 13:34N 29°46' W 095°06'0 0.0
2015-Nov-30 12:34N 29°46' W 095°06'0 0.0
2015-Nov-30 11:34N 29°46' W 095°06'0 0.0
2015-Nov-30 10:34N 29°46' W 095°06'0 0.0
2015-Nov-30 09:33N 29°46' W 095°06'2 1.7
2015-Nov-30 08:33N 29°47' W 095°04'0 0.3
2015-Nov-30 07:33N 29°47' W 095°04'0 0.0
2015-Nov-30 06:33N 29°47' W 095°04'0 0.0
2015-Nov-30 05:33N 29°47' W 095°04'0 0.0
2015-Nov-30 04:21N 29°47' W 095°04'3 3.3
2015-Nov-30 03:31N 29°45' W 095°06'7 6.9
2015-Nov-30 02:32N 29°44' W 095°14'0 0.1
2015-Nov-30 01:33N 29°44' W 095°14'0 0.0
2015-Nov-30 00:33N 29°44' W 095°14'0 0.0
2015-Nov-29 23:33N 29°44' W 095°14'0 0.0
2015-Nov-29 22:33N 29°44' W 095°14'0 0.0
2015-Nov-29 21:33N 29°44' W 095°14'0 0.0
2015-Nov-29 20:33N 29°44' W 095°14'0 0.0
2015-Nov-29 19:33N 29°44' W 095°14'0 0.0
2015-Nov-29 18:33N 29°44' W 095°14'0 0.0
2015-Nov-29 17:33N 29°44' W 095°14'0 0.0
2015-Nov-29 16:33N 29°44' W 095°14'0 0.0
2015-Nov-29 15:33N 29°44' W 095°14'0 0.0
2015-Nov-29 14:33N 29°44' W 095°14'0 0.0
2015-Nov-29 13:33N 29°44' W 095°14'0 0.0
2015-Nov-29 12:33N 29°44' W 095°14'0 0.0
2015-Nov-29 11:33N 29°44' W 095°14'0 0.0
2015-Nov-29 10:33N 29°44' W 095°14'0 0.0
2015-Nov-29 09:33N 29°44' W 095°14'0 0.0
2015-Nov-29 08:33N 29°44' W 095°14'0 0.0
2015-Nov-29 07:33N 29°44' W 095°14'  

Dump ship's entire track history